Time;durP1;ratioP1;P1;durP2;ratioP2;P2;SDS_P1;SDS_P2;PMS_P1;PMS_P2;Temp;Humidity;BMP_temperature;BMP_pressure;BME280_temperature;BME280_humidity;BME280_pressure;Samples;Min_cycle;Max_cycle;Signal;HPM_P1;HPM_P2
2021/03/19 00:03:59;;;;;;;4.73;2.30;;;;;;;;;;10397593;28;20243;-78
2021/03/19 00:09:02;;;;;;;5.23;2.50;;;;;;;;;;10396275;28;20220;-79
2021/03/19 00:14:05;;;;;;;4.07;2.17;;;;;;;;;;10399999;28;20817;-79
2021/03/19 00:19:08;;;;;;;4.27;2.40;;;;;;;;;;10397882;28;20781;-78
2021/03/19 00:24:10;;;;;;;5.07;2.40;;;;;;;;;;10396921;28;20240;-79
2021/03/19 00:29:13;;;;;;;3.50;2.13;;;;;;;;;;10392139;28;20687;-79
2021/03/19 00:34:15;;;;;;;4.43;2.10;;;;;;;;;;10395549;28;20736;-78
2021/03/19 00:39:17;;;;;;;4.03;2.20;;;;;;;;;;10398088;28;20223;-79
2021/03/19 00:44:20;;;;;;;5.93;2.63;;;;;;;;;;10397696;28;20520;-78
2021/03/19 00:49:22;;;;;;;4.60;2.40;;;;;;;;;;10397633;28;20626;-77
2021/03/19 00:54:24;;;;;;;3.50;2.30;;;;;;;;;;10396333;28;20234;-77
2021/03/19 00:59:27;;;;;;;7.93;2.40;;;;;;;;;;10396615;28;20287;-77
2021/03/19 01:04:29;;;;;;;6.23;2.50;;;;;;;;;;10396057;28;20255;-77
2021/03/19 01:09:31;;;;;;;3.13;2.33;;;;;;;;;;10398029;28;20211;-77
2021/03/19 01:14:34;;;;;;;5.23;2.47;;;;;;;;;;10395321;28;20263;-77
2021/03/19 01:19:36;;;;;;;4.97;2.70;;;;;;;;;;10397434;28;20678;-77
2021/03/19 01:24:38;;;;;;;3.70;2.50;;;;;;;;;;10395691;28;20659;-77
2021/03/19 01:29:41;;;;;;;3.50;2.40;;;;;;;;;;10399716;28;21262;-77
2021/03/19 01:34:43;;;;;;;3.73;2.53;;;;;;;;;;10402125;28;20610;-76
2021/03/19 01:39:45;;;;;;;6.63;2.80;;;;;;;;;;10397393;28;20220;-76
2021/03/19 01:45:00;;;;;;;3.13;2.20;;;;;;;;;;10401816;28;20228;-76
2021/03/19 01:50:20;;;;;;;3.93;2.60;;;;;;;;;;10411143;28;20219;-76
2021/03/19 01:55:40;;;;;;;5.27;2.50;;;;;;;;;;10402225;28;20739;-76
2021/03/19 02:01:01;;;;;;;5.20;2.20;;;;;;;;;;10405430;28;20226;-76
2021/03/19 02:06:22;;;;;;;5.37;2.33;;;;;;;;;;10400991;28;20330;-76
2021/03/19 02:11:42;;;;;;;6.00;2.50;;;;;;;;;;10404269;28;20235;-77
2021/03/19 02:17:02;;;;;;;4.03;2.20;;;;;;;;;;10405165;28;20602;-77
2021/03/19 02:22:23;;;;;;;3.93;2.50;;;;;;;;;;10401139;28;20207;-77
2021/03/19 02:27:43;;;;;;;5.17;2.90;;;;;;;;;;10408724;28;20214;-77
2021/03/19 02:32:46;;;;;;;7.00;2.60;;;;;;;;;;10402433;28;20629;-77
2021/03/19 02:37:48;;;;;;;3.43;2.33;;;;;;;;;;10407315;28;20219;-77
2021/03/19 02:42:50;;;;;;;8.37;2.50;;;;;;;;;;10402423;28;20762;-78
2021/03/19 02:47:53;;;;;;;6.73;2.40;;;;;;;;;;10406697;28;20208;-77
2021/03/19 02:52:56;;;;;;;5.17;2.67;;;;;;;;;;10404481;28;20305;-76
2021/03/19 02:57:58;;;;;;;5.57;2.70;;;;;;;;;;10402629;28;20230;-77
2021/03/19 03:03:01;;;;;;;5.73;2.53;;;;;;;;;;10403139;28;20238;-77
2021/03/19 03:08:04;;;;;;;5.33;2.60;;;;;;;;;;10401254;28;20230;-76
2021/03/19 03:13:07;;;;;;;6.50;2.70;;;;;;;;;;10407044;28;20241;-76
2021/03/19 03:18:10;;;;;;;6.23;2.70;;;;;;;;;;10397097;28;20220;-76
2021/03/19 03:23:12;;;;;;;7.37;2.50;;;;;;;;;;10404073;28;20691;-77
2021/03/19 03:28:15;;;;;;;7.83;2.47;;;;;;;;;;10407519;28;20226;-76
2021/03/19 03:33:19;;;;;;;8.20;2.50;;;;;;;;;;10398632;28;20239;-77
2021/03/19 03:38:23;;;;;;;10.17;3.17;;;;;;;;;;10402484;28;20215;-77
2021/03/19 03:43:26;;;;;;;6.50;2.53;;;;;;;;;;10404780;28;20216;-77
2021/03/19 03:48:30;;;;;;;7.23;2.40;;;;;;;;;;10399826;28;20219;-78
2021/03/19 03:53:32;;;;;;;7.17;3.00;;;;;;;;;;10395014;28;20235;-78
2021/03/19 03:58:34;;;;;;;13.37;2.97;;;;;;;;;;10402046;28;20208;-78
2021/03/19 04:03:37;;;;;;;10.70;3.40;;;;;;;;;;10399204;28;20289;-78
2021/03/19 04:08:39;;;;;;;8.33;3.07;;;;;;;;;;10397559;28;20212;-78
2021/03/19 04:13:41;;;;;;;11.47;3.50;;;;;;;;;;10402416;28;20236;-78
2021/03/19 04:18:44;;;;;;;6.73;3.30;;;;;;;;;;10395654;28;20284;-78
2021/03/19 04:23:47;;;;;;;7.43;3.20;;;;;;;;;;10399881;28;20218;-78
2021/03/19 04:28:49;;;;;;;5.80;3.00;;;;;;;;;;10377135;28;20688;-78
2021/03/19 04:33:52;;;;;;;9.27;3.13;;;;;;;;;;10394251;28;22012;-78
2021/03/19 04:38:55;;;;;;;7.80;3.03;;;;;;;;;;10399261;28;20294;-78
2021/03/19 04:43:57;;;;;;;6.10;3.03;;;;;;;;;;10402004;28;20600;-76
2021/03/19 04:49:00;;;;;;;12.93;3.60;;;;;;;;;;10400200;28;20220;-77
2021/03/19 04:54:02;;;;;;;8.23;3.30;;;;;;;;;;10401002;28;20623;-77
2021/03/19 04:59:04;;;;;;;11.43;3.50;;;;;;;;;;10398467;28;20216;-77
2021/03/19 05:04:07;;;;;;;8.53;3.20;;;;;;;;;;10400079;28;20228;-80
2021/03/19 05:09:09;;;;;;;6.20;3.10;;;;;;;;;;10406593;28;20219;-81
2021/03/19 05:14:10;;;;;;;7.50;2.97;;;;;;;;;;10400573;28;20246;-81
2021/03/19 05:19:14;;;;;;;9.73;2.97;;;;;;;;;;10405844;28;20223;-78
2021/03/19 05:24:16;;;;;;;6.17;2.77;;;;;;;;;;10401442;28;20205;-80
2021/03/19 05:29:18;;;;;;;9.47;3.07;;;;;;;;;;10405169;28;20557;-77
2021/03/19 05:34:21;;;;;;;10.03;3.20;;;;;;;;;;10407662;28;20243;-76
2021/03/19 05:39:22;;;;;;;8.97;3.00;;;;;;;;;;10405481;28;20307;-81
2021/03/19 05:44:27;;;;;;;9.70;3.30;;;;;;;;;;10406765;28;20691;-78
2021/03/19 05:49:31;;;;;;;10.37;3.13;;;;;;;;;;10407277;28;20238;-79
2021/03/19 05:54:37;;;;;;;6.70;3.07;;;;;;;;;;10395925;28;20724;-81
2021/03/19 05:59:40;;;;;;;7.57;3.20;;;;;;;;;;10407218;28;20216;-77
2021/03/19 06:04:42;;;;;;;9.90;3.30;;;;;;;;;;10406352;28;20980;-77
2021/03/19 06:09:45;;;;;;;8.30;3.27;;;;;;;;;;10402809;28;20223;-77
2021/03/19 06:14:48;;;;;;;6.07;2.90;;;;;;;;;;10416743;28;20240;-78
2021/03/19 06:19:55;;;;;;;9.50;3.23;;;;;;;;;;10417977;28;20218;-78
2021/03/19 06:24:59;;;;;;;8.97;3.20;;;;;;;;;;10409704;28;20208;-78
2021/03/19 06:30:01;;;;;;;8.70;3.50;;;;;;;;;;10413349;28;20236;-76
2021/03/19 06:35:18;;;;;;;8.90;3.90;;;;;;;;;;10411205;28;20219;-77
2021/03/19 06:40:25;;;;;;;8.70;3.77;;;;;;;;;;10412908;28;20211;-79
2021/03/19 06:45:27;;;;;;;12.43;4.77;;;;;;;;;;10418072;28;20219;-77
2021/03/19 06:50:35;;;;;;;10.67;4.30;;;;;;;;;;10412324;28;20577;-79
2021/03/19 06:55:40;;;;;;;12.43;3.43;;;;;;;;;;10405617;28;20242;-79
2021/03/19 07:00:44;;;;;;;10.40;3.20;;;;;;;;;;10414586;28;20220;-78
2021/03/19 07:05:59;;;;;;;9.67;2.87;;;;;;;;;;10416647;28;20239;-77
2021/03/19 07:11:23;;;;;;;10.47;3.10;;;;;;;;;;10407425;28;20269;-79
2021/03/19 07:16:27;;;;;;;6.83;3.17;;;;;;;;;;10405855;28;20301;-78
2021/03/19 07:21:46;;;;;;;7.73;2.90;;;;;;;;;;10409312;28;20310;-77
2021/03/19 07:26:51;;;;;;;10.00;3.03;;;;;;;;;;10404808;28;20225;-77
2021/03/19 07:32:14;;;;;;;14.70;3.80;;;;;;;;;;10411043;28;20208;-77
2021/03/19 07:37:24;;;;;;;14.23;4.23;;;;;;;;;;10408843;28;20310;-75
2021/03/19 07:42:38;;;;;;;10.13;3.23;;;;;;;;;;10413277;28;20251;-78
2021/03/19 07:47:49;;;;;;;9.63;3.33;;;;;;;;;;10410327;28;20212;-78
2021/03/19 07:53:02;;;;;;;12.63;3.57;;;;;;;;;;10406182;28;20247;-78
2021/03/19 07:58:10;;;;;;;10.13;3.23;;;;;;;;;;10406394;28;20215;-77
2021/03/19 08:03:13;;;;;;;11.83;3.53;;;;;;;;;;10399036;28;20622;-78
2021/03/19 08:08:23;;;;;;;6.00;3.20;;;;;;;;;;10402171;28;20299;-77
2021/03/19 08:13:33;;;;;;;8.97;3.23;;;;;;;;;;10409550;28;20242;-78
2021/03/19 08:18:37;;;;;;;11.50;3.53;;;;;;;;;;10407307;28;20300;-78
2021/03/19 08:23:49;;;;;;;9.60;3.77;;;;;;;;;;10409578;28;20707;-78
2021/03/19 08:29:04;;;;;;;10.33;3.80;;;;;;;;;;10407643;28;20214;-79
2021/03/19 08:34:16;;;;;;;11.10;3.67;;;;;;;;;;10400105;28;20235;-78
2021/03/19 08:39:26;;;;;;;8.67;3.93;;;;;;;;;;10396441;28;20220;-77
2021/03/19 08:44:33;;;;;;;11.13;3.40;;;;;;;;;;10403175;28;20640;-78
2021/03/19 08:49:39;;;;;;;13.07;3.63;;;;;;;;;;10403196;28;20678;-78
2021/03/19 08:54:42;;;;;;;9.40;3.20;;;;;;;;;;10398997;28;20238;-79
2021/03/19 08:59:51;;;;;;;6.53;2.80;;;;;;;;;;10410876;28;20579;-78
2021/03/19 09:05:13;;;;;;;8.83;2.70;;;;;;;;;;10398356;28;20673;-78
2021/03/19 09:10:40;;;;;;;6.30;2.93;;;;;;;;;;10384907;28;21934;-78
2021/03/19 09:15:43;;;;;;;6.27;2.90;;;;;;;;;;10408082;28;20401;-78
2021/03/19 09:21:03;;;;;;;7.70;2.77;;;;;;;;;;10404873;28;20219;-78
2021/03/19 12:37:03;;;;;;;5.03;2.23;;;;;;;;;;13023600;22;923088;-77
2021/03/19 12:42:05;;;;;;;4.30;2.40;;;;;;;;;;13032653;22;20582;-77
2021/03/19 12:47:08;;;;;;;2.97;2.00;;;;;;;;;;13039307;22;20658;-77
2021/03/19 12:52:11;;;;;;;5.37;2.10;;;;;;;;;;13011746;22;20189;-77
2021/03/19 12:57:12;;;;;;;3.20;2.20;;;;;;;;;;13015439;22;20173;-76
2021/03/19 13:02:18;;;;;;;4.23;2.10;;;;;;;;;;13033170;22;20221;-78
2021/03/19 13:07:21;;;;;;;3.53;2.17;;;;;;;;;;13010613;22;20689;-77
2021/03/19 13:12:23;;;;;;;5.33;2.10;;;;;;;;;;13013095;22;20214;-77
2021/03/19 13:17:31;;;;;;;7.20;2.30;;;;;;;;;;13037449;22;20172;-77
2021/03/19 13:22:34;;;;;;;4.77;1.90;;;;;;;;;;13006577;22;20184;-77
2021/03/19 13:27:38;;;;;;;3.50;1.80;;;;;;;;;;13032123;22;20710;-78
2021/03/19 13:32:56;;;;;;;2.77;1.80;;;;;;;;;;13031057;22;20166;-78
2021/03/19 13:38:00;;;;;;;4.77;1.93;;;;;;;;;;13035892;22;20212;-77
2021/03/19 13:43:02;;;;;;;2.70;1.80;;;;;;;;;;13034455;22;20234;-78
2021/03/19 13:48:05;;;;;;;2.97;1.80;;;;;;;;;;13037309;22;20213;-78
2021/03/19 13:53:08;;;;;;;4.50;2.37;;;;;;;;;;13033619;22;20588;-77
2021/03/19 13:58:15;;;;;;;4.40;1.90;;;;;;;;;;13036699;22;20173;-77
2021/03/19 14:03:26;;;;;;;3.40;1.90;;;;;;;;;;13025863;22;20201;-78
2021/03/19 14:08:32;;;;;;;4.60;2.00;;;;;;;;;;13015159;22;20198;-77
2021/03/19 14:13:36;;;;;;;2.50;1.90;;;;;;;;;;13041496;22;20173;-77
2021/03/19 14:18:38;;;;;;;2.37;1.60;;;;;;;;;;13036073;22;20173;-78
2021/03/19 14:23:42;;;;;;;2.70;1.80;;;;;;;;;;13035765;22;20169;-77
2021/03/19 14:28:45;;;;;;;2.57;2.00;;;;;;;;;;13037934;22;20292;-77
2021/03/19 14:33:54;;;;;;;2.83;1.87;;;;;;;;;;13036419;22;20174;-78
2021/03/19 14:38:58;;;;;;;5.27;2.10;;;;;;;;;;13034008;22;20631;-78
2021/03/19 14:44:00;;;;;;;5.70;2.40;;;;;;;;;;13040099;22;20677;-79
2021/03/19 14:49:23;;;;;;;5.53;2.20;;;;;;;;;;13016335;22;20627;-78
2021/03/19 14:54:26;;;;;;;3.27;2.00;;;;;;;;;;13036511;22;20639;-78
2021/03/19 14:59:29;;;;;;;3.00;1.90;;;;;;;;;;13034946;22;20663;-78
2021/03/19 15:04:31;;;;;;;3.73;2.10;;;;;;;;;;13018031;22;20198;-78
2021/03/19 15:09:34;;;;;;;4.80;1.80;;;;;;;;;;13011783;22;20671;-78
2021/03/19 15:14:36;;;;;;;2.87;1.90;;;;;;;;;;13016260;22;20971;-78
2021/03/19 15:19:38;;;;;;;3.13;1.93;;;;;;;;;;13014900;22;20435;-78
2021/03/19 15:24:41;;;;;;;3.37;2.00;;;;;;;;;;13032785;22;20276;-78
2021/03/19 15:29:43;;;;;;;3.50;1.80;;;;;;;;;;13016849;22;20208;-78
2021/03/19 15:34:49;;;;;;;5.50;2.07;;;;;;;;;;13034342;22;20170;-78
2021/03/19 15:39:52;;;;;;;5.20;2.20;;;;;;;;;;13035926;22;20188;-78
2021/03/19 15:44:54;;;;;;;3.23;2.03;;;;;;;;;;13035487;22;20627;-78
2021/03/19 15:49:56;;;;;;;7.57;2.00;;;;;;;;;;13038273;22;20636;-78
2021/03/19 15:54:59;;;;;;;5.63;2.00;;;;;;;;;;13033583;22;20180;-78
2021/03/19 16:00:01;;;;;;;3.07;1.83;;;;;;;;;;13038890;22;20184;-78
2021/03/19 16:05:07;;;;;;;3.33;1.70;;;;;;;;;;13033958;22;20197;-78
2021/03/19 16:10:12;;;;;;;4.17;1.80;;;;;;;;;;13035924;22;20532;-78
2021/03/19 16:15:15;;;;;;;4.50;1.63;;;;;;;;;;13036815;22;21037;-78
2021/03/19 16:20:17;;;;;;;3.13;1.70;;;;;;;;;;13037496;22;20262;-78
2021/03/19 16:25:22;;;;;;;4.53;1.77;;;;;;;;;;13031653;22;20182;-77
2021/03/19 16:30:26;;;;;;;2.90;1.70;;;;;;;;;;13038821;22;20612;-76
2021/03/19 16:35:32;;;;;;;4.53;1.50;;;;;;;;;;13033388;22;20195;-77
2021/03/19 16:40:35;;;;;;;2.97;1.33;;;;;;;;;;13033412;22;20196;-78
2021/03/19 16:45:37;;;;;;;4.70;1.60;;;;;;;;;;13034083;22;20178;-77
2021/03/19 16:50:39;;;;;;;4.63;1.70;;;;;;;;;;13038865;22;20205;-78
2021/03/19 16:55:45;;;;;;;4.30;1.63;;;;;;;;;;13034154;22;20180;-78
2021/03/19 17:00:46;;;;;;;5.53;1.57;;;;;;;;;;13039256;22;20277;-77
2021/03/19 17:06:05;;;;;;;2.03;1.50;;;;;;;;;;13016139;22;20586;-78
2021/03/19 17:11:08;;;;;;;2.20;1.30;;;;;;;;;;13029060;22;20251;-78
2021/03/19 17:16:10;;;;;;;2.90;1.60;;;;;;;;;;13015902;22;20177;-78
2021/03/19 17:21:12;;;;;;;4.50;2.10;;;;;;;;;;13036965;22;20181;-78
2021/03/19 17:26:19;;;;;;;3.33;1.83;;;;;;;;;;13034328;22;20182;-78
2021/03/19 17:31:21;;;;;;;4.73;1.83;;;;;;;;;;13041344;22;20222;-78
2021/03/19 17:36:23;;;;;;;4.50;1.90;;;;;;;;;;13013542;22;20187;-78
2021/03/19 17:41:27;;;;;;;3.90;2.13;;;;;;;;;;13035533;22;20179;-78
2021/03/19 17:46:28;;;;;;;3.63;1.73;;;;;;;;;;13010010;22;20623;-78
2021/03/19 17:51:31;;;;;;;7.70;2.70;;;;;;;;;;13016084;22;20236;-78
2021/03/19 17:56:34;;;;;;;6.40;2.20;;;;;;;;;;13037254;22;20188;-78
2021/03/19 18:01:36;;;;;;;7.10;2.63;;;;;;;;;;13038666;22;20201;-78
2021/03/19 18:06:48;;;;;;;6.63;2.73;;;;;;;;;;13039580;22;20170;-78
2021/03/19 18:11:51;;;;;;;5.90;2.40;;;;;;;;;;13010754;22;20205;-78
2021/03/19 18:16:53;;;;;;;7.20;2.87;;;;;;;;;;13039536;22;20182;-78
2021/03/19 18:21:55;;;;;;;7.03;2.50;;;;;;;;;;13035905;22;20178;-77
2021/03/19 18:26:58;;;;;;;6.63;2.60;;;;;;;;;;13016743;22;20298;-77
2021/03/19 18:32:00;;;;;;;9.60;2.93;;;;;;;;;;13035577;22;20275;-77
2021/03/19 18:37:11;;;;;;;6.73;2.60;;;;;;;;;;13032534;22;20563;-78
2021/03/19 18:42:14;;;;;;;8.80;2.47;;;;;;;;;;13036822;22;20338;-77
2021/03/19 18:47:16;;;;;;;6.83;2.73;;;;;;;;;;13041217;22;20540;-77
2021/03/19 18:52:18;;;;;;;7.17;3.13;;;;;;;;;;13035707;22;20205;-76
2021/03/19 18:57:21;;;;;;;11.00;3.83;;;;;;;;;;13016212;22;20486;-77
2021/03/19 19:02:23;;;;;;;6.33;2.47;;;;;;;;;;13016738;22;20232;-79
2021/03/19 19:07:35;;;;;;;5.80;2.90;;;;;;;;;;13033177;22;20174;-81
2021/03/19 19:12:39;;;;;;;7.83;3.47;;;;;;;;;;13038460;22;20174;-78
2021/03/19 19:17:41;;;;;;;7.37;3.40;;;;;;;;;;13015372;22;20180;-78
2021/03/19 19:22:43;;;;;;;7.10;2.63;;;;;;;;;;13034433;22;20166;-90
2021/03/19 19:27:46;;;;;;;5.73;2.33;;;;;;;;;;13034477;22;20193;-76
2021/03/19 19:32:48;;;;;;;7.57;3.10;;;;;;;;;;13015418;22;20169;-77
2021/03/19 19:37:56;;;;;;;8.73;3.93;;;;;;;;;;13017521;22;20621;-80
2021/03/19 19:42:59;;;;;;;7.60;3.43;;;;;;;;;;13031579;22;20591;-81
2021/03/19 19:48:01;;;;;;;11.40;4.87;;;;;;;;;;13027299;22;20611;-78
2021/03/19 19:53:04;;;;;;;10.43;3.90;;;;;;;;;;13024579;22;20166;-78
2021/03/19 19:58:09;;;;;;;9.67;4.03;;;;;;;;;;13025126;22;20260;-79
2021/03/19 20:03:29;;;;;;;12.67;4.47;;;;;;;;;;13019564;22;20714;-80
2021/03/19 20:08:31;;;;;;;14.87;4.13;;;;;;;;;;13000968;22;20356;-78
2021/03/19 20:13:35;;;;;;;9.30;3.83;;;;;;;;;;13029802;22;20599;-89
2021/03/19 20:18:38;;;;;;;10.90;3.23;;;;;;;;;;13006969;22;20592;-78
2021/03/19 20:23:40;;;;;;;13.00;3.60;;;;;;;;;;13019253;22;20173;-80
2021/03/19 20:28:44;;;;;;;9.97;3.00;;;;;;;;;;13026538;22;20205;-79
2021/03/19 20:33:46;;;;;;;9.37;3.23;;;;;;;;;;13004337;22;20514;-81
2021/03/19 20:38:48;;;;;;;7.73;2.93;;;;;;;;;;13003927;22;20188;-78
2021/03/19 20:43:51;;;;;;;8.07;2.77;;;;;;;;;;13028105;22;20265;-76
2021/03/19 20:48:53;;;;;;;7.97;3.00;;;;;;;;;;13031031;22;20243;-78
2021/03/19 20:53:56;;;;;;;6.70;3.20;;;;;;;;;;13024932;22;20177;-78
2021/03/19 20:58:59;;;;;;;10.93;3.70;;;;;;;;;;13004804;22;20986;-79
2021/03/19 21:04:03;;;;;;;6.63;3.40;;;;;;;;;;13002401;22;20208;-78
2021/03/19 21:09:07;;;;;;;7.10;3.50;;;;;;;;;;13005606;22;20227;-78
2021/03/19 21:14:10;;;;;;;8.20;3.73;;;;;;;;;;13005112;22;20440;-79
2021/03/19 21:19:14;;;;;;;10.83;3.60;;;;;;;;;;13002915;22;20173;-78
2021/03/19 21:24:16;;;;;;;10.50;4.00;;;;;;;;;;13003194;22;20180;-79
2021/03/19 21:29:19;;;;;;;10.77;4.53;;;;;;;;;;13004481;22;20463;-79
2021/03/19 21:34:21;;;;;;;9.47;4.03;;;;;;;;;;13026824;22;20173;-79
2021/03/19 21:39:27;;;;;;;9.70;4.23;;;;;;;;;;13020482;22;20694;-79
2021/03/19 21:44:30;;;;;;;9.83;4.00;;;;;;;;;;13005421;22;20512;-79
2021/03/19 21:49:32;;;;;;;13.27;5.07;;;;;;;;;;13023207;22;20198;-79
2021/03/19 21:54:35;;;;;;;8.27;4.10;;;;;;;;;;13010245;22;20566;-79
2021/03/19 21:59:38;;;;;;;11.87;4.73;;;;;;;;;;13013026;22;20174;-78
2021/03/19 22:04:39;;;;;;;13.23;4.20;;;;;;;;;;13032734;22;20225;-78
2021/03/19 22:09:46;;;;;;;10.57;4.50;;;;;;;;;;13030747;22;20280;-78
2021/03/19 22:14:49;;;;;;;10.83;4.30;;;;;;;;;;13014212;22;20174;-78
2021/03/19 22:19:51;;;;;;;11.23;4.20;;;;;;;;;;13031568;22;20512;-77
2021/03/19 22:24:53;;;;;;;11.23;4.10;;;;;;;;;;13010990;22;20189;-78
2021/03/19 22:29:55;;;;;;;10.47;4.20;;;;;;;;;;13011346;22;20255;-78
2021/03/19 22:34:57;;;;;;;9.57;4.30;;;;;;;;;;13035145;22;20292;-78
2021/03/19 22:40:12;;;;;;;8.33;4.33;;;;;;;;;;13014641;22;20260;-76
2021/03/19 22:45:15;;;;;;;9.63;4.20;;;;;;;;;;13017410;22;20284;-77
2021/03/19 22:50:19;;;;;;;8.20;4.00;;;;;;;;;;13012545;22;20205;-78
2021/03/19 22:55:22;;;;;;;8.73;4.40;;;;;;;;;;13008432;22;20256;-77
2021/03/19 23:00:27;;;;;;;6.03;3.97;;;;;;;;;;13035390;22;20615;-77
2021/03/19 23:05:29;;;;;;;10.20;4.47;;;;;;;;;;13036336;22;20200;-78
2021/03/19 23:10:36;;;;;;;11.40;4.43;;;;;;;;;;13035304;22;20197;-78
2021/03/19 23:15:42;;;;;;;5.87;3.70;;;;;;;;;;13033274;22;20338;-76
2021/03/19 23:20:44;;;;;;;6.50;4.27;;;;;;;;;;13037525;22;20170;-78
2021/03/19 23:25:46;;;;;;;6.43;4.07;;;;;;;;;;13011466;22;20232;-78
2021/03/19 23:30:52;;;;;;;8.50;4.10;;;;;;;;;;13035307;22;20209;-76
2021/03/19 23:35:54;;;;;;;7.20;4.40;;;;;;;;;;13033964;22;20564;-76
2021/03/19 23:40:59;;;;;;;9.27;4.20;;;;;;;;;;13013832;22;20174;-76
2021/03/19 23:46:03;;;;;;;5.83;4.23;;;;;;;;;;13033958;22;20170;-77
2021/03/19 23:51:06;;;;;;;6.27;4.13;;;;;;;;;;13020029;22;20557;-77
2021/03/19 23:56:09;;;;;;;7.97;4.30;;;;;;;;;;13028966;22;20180;-77
